Time,TemperatureF,DewpointF,PressureIn,WindDirection,WindDirectionDegrees,WindSpeedMPH,WindSpeedGustMPH,Humidity,HourlyPrecipIn,Conditions,Clouds,dailyrainin,SoftwareType,DateUTC
2013-08-14 00:15:00,80.0,53.0,30.09,SW,223,0.0,1.0,39,0.00,,,0.00,weatherlink.com 1.10,2013-08-14 06:15:00,
2013-08-14 00:30:00,79.8,53.0,30.09,SW,223,0.0,2.0,40,0.00,,,0.00,weatherlink.com 1.10,2013-08-14 06:30:00,
2013-08-14 00:45:00,78.8,54.0,30.09,SW,223,0.0,2.0,42,0.00,,,0.00,weatherlink.com 1.10,2013-08-14 06:45:00,
2013-08-14 01:00:00,78.7,54.0,30.09,SW,227,0.0,2.0,42,0.00,,,0.00,weatherlink.com 1.10,2013-08-14 07:00:00,
2013-08-14 01:16:00,78.4,54.0,30.08,SW,227,0.0,3.0,43,0.00,,,0.00,weatherlink.com 1.10,2013-08-14 07:16:00,
2013-08-14 01:31:00,78.2,54.0,30.08,WNW,300,0.0,2.0,43,0.00,,,0.00,weatherlink.com 1.10,2013-08-14 07:31:00,
2013-08-14 01:46:00,78.9,55.0,30.08,South,178,0.0,4.0,43,0.00,,,0.00,weatherlink.com 1.10,2013-08-14 07:46:00,
2013-08-14 02:02:00,78.5,55.0,30.08,South,178,0.0,0.0,44,0.00,,,0.00,weatherlink.com 1.10,2013-08-14 08:02:00,
2013-08-14 02:16:00,78.0,54.0,30.08,South,183,1.0,2.0,44,0.00,,,0.00,weatherlink.com 1.10,2013-08-14 08:16:00,
2013-08-14 02:32:00,77.7,54.0,30.08,South,188,0.0,2.0,44,0.00,,,0.00,weatherlink.com 1.10,2013-08-14 08:32:00,
2013-08-14 02:47:00,77.7,55.0,30.07,SSW,205,2.0,7.0,45,0.00,,,0.00,weatherlink.com 1.10,2013-08-14 08:47:00,
2013-08-14 03:02:00,77.7,55.0,30.07,WSW,240,3.0,4.0,46,0.00,,,0.00,weatherlink.com 1.10,2013-08-14 09:02:00,
2013-08-14 03:17:00,77.3,55.0,30.07,East,94,0.0,6.0,47,0.00,,,0.00,weatherlink.com 1.10,2013-08-14 09:17:00,
2013-08-14 03:32:00,76.9,55.0,30.08,East,94,0.0,1.0,47,0.00,,,0.00,weatherlink.com 1.10,2013-08-14 09:32:00,
2013-08-14 03:48:00,76.5,55.0,30.08,East,94,0.0,1.0,48,0.00,,,0.00,weatherlink.com 1.10,2013-08-14 09:48:00,
2013-08-14 04:03:00,75.5,57.0,30.08,East,94,0.0,2.0,52,0.00,,,0.00,weatherlink.com 1.10,2013-08-14 10:03:00,
2013-08-14 04:18:00,75.8,58.0,30.08,SSE,153,0.0,2.0,54,0.00,,,0.00,weatherlink.com 1.10,2013-08-14 10:18:00,
2013-08-14 04:33:00,75.5,55.0,30.08,South,176,0.0,2.0,49,0.00,,,0.00,weatherlink.com 1.10,2013-08-14 10:33:00,
2013-08-14 04:48:00,74.8,55.0,30.08,South,176,0.0,2.0,51,0.00,,,0.00,weatherlink.com 1.10,2013-08-14 10:48:00,
2013-08-14 05:04:00,73.8,55.0,30.08,North,9,3.0,3.0,52,0.00,,,0.00,weatherlink.com 1.10,2013-08-14 11:04:00,
2013-08-14 05:19:00,74.1,55.0,30.08,NNW,346,1.0,4.0,51,0.00,,,0.00,weatherlink.com 1.10,2013-08-14 11:19:00,
2013-08-14 05:34:00,74.0,55.0,30.09,NNW,329,3.0,6.0,51,0.00,,,0.00,weatherlink.com 1.10,2013-08-14 11:34:00,
2013-08-14 05:49:00,73.9,55.0,30.09,NW,315,0.0,5.0,52,0.00,,,0.00,weatherlink.com 1.10,2013-08-14 11:49:00,
2013-08-14 06:04:00,73.9,56.0,30.09,NW,312,2.0,5.0,53,0.00,,,0.00,weatherlink.com 1.10,2013-08-14 12:04:00,
2013-08-14 06:20:00,74.1,56.0,30.10,WNW,300,2.0,4.0,53,0.00,,,0.00,weatherlink.com 1.10,2013-08-14 12:20:00,
2013-08-14 06:35:00,74.3,56.0,30.10,West,280,2.0,2.0,53,0.00,,,0.00,weatherlink.com 1.10,2013-08-14 12:35:00,
2013-08-14 06:50:00,74.3,56.0,30.11,North,355,4.0,5.0,52,0.00,,,0.00,weatherlink.com 1.10,2013-08-14 12:50:00,
2013-08-14 07:05:00,74.6,56.0,30.11,NW,307,6.0,8.0,53,0.00,,,0.00,weatherlink.com 1.10,2013-08-14 13:05:00,
2013-08-14 07:21:00,74.7,57.0,30.12,NW,315,5.0,6.0,54,0.00,,,0.00,weatherlink.com 1.10,2013-08-14 13:21:00,
2013-08-14 07:36:00,75.8,57.0,30.12,NNW,338,1.0,3.0,53,0.00,,,0.00,weatherlink.com 1.10,2013-08-14 13:36:00,
2013-08-14 07:51:00,76.9,57.0,30.14,NNE,24,0.0,5.0,51,0.00,,,0.00,weatherlink.com 1.10,2013-08-14 13:51:00,
2013-08-14 08:06:00,77.5,58.0,30.14,North,349,2.0,3.0,51,0.00,,,0.00,weatherlink.com 1.10,2013-08-14 14:06:00,
2013-08-14 08:21:00,78.3,59.0,30.14,North,9,3.0,4.0,51,0.00,,,0.00,weatherlink.com 1.10,2013-08-14 14:21:00,
2013-08-14 08:37:00,79.3,59.0,30.15,NNE,22,0.0,4.0,50,0.00,,,0.00,weatherlink.com 1.10,2013-08-14 14:37:00,
2013-08-14 08:52:00,80.5,59.0,30.15,ENE,71,3.0,5.0,48,0.00,,,0.00,weatherlink.com 1.10,2013-08-14 14:52:00,
2013-08-14 09:07:00,80.9,59.0,30.16,NNE,12,5.0,7.0,48,0.00,,,0.00,weatherlink.com 1.10,2013-08-14 15:07:00,
2013-08-14 09:22:00,81.8,60.0,30.16,NE,34,2.0,5.0,47,0.00,,,0.00,weatherlink.com 1.10,2013-08-14 15:22:00,
2013-08-14 09:37:00,83.9,60.0,30.16,ENE,76,3.0,6.0,44,0.00,,,0.00,weatherlink.com 1.10,2013-08-14 15:37:00,
2013-08-14 11:06:00,89.9,61.0,30.15,WSW,252,0.0,13.0,38,0.00,,,0.00,weatherlink.com 1.10,2013-08-14 17:06:00,
2013-08-14 11:21:00,91.9,60.0,30.15,SSE,165,8.0,9.0,35,0.00,,,0.00,weatherlink.com 1.10,2013-08-14 17:21:00,
2013-08-14 11:36:00,92.9,61.0,30.15,SE,144,8.0,13.0,35,0.00,,,0.00,weatherlink.com 1.10,2013-08-14 17:36:00,
2013-08-14 11:51:00,92.8,62.0,30.14,ESE,119,7.0,13.0,36,0.00,,,0.00,weatherlink.com 1.10,2013-08-14 17:51:00,
2013-08-14 12:22:00,94.4,62.0,30.13,SE,142,7.0,14.0,34,0.00,,,0.00,weatherlink.com 1.10,2013-08-14 18:22:00,
2013-08-14 12:37:00,94.2,60.0,30.12,East,84,10.0,11.0,32,0.00,,,0.00,weatherlink.com 1.10,2013-08-14 18:37:00,
2013-08-14 12:52:00,94.7,60.0,30.12,East,92,1.0,13.0,32,0.00,,,0.00,weatherlink.com 1.10,2013-08-14 18:52:00,
2013-08-14 13:08:00,94.8,59.0,30.11,SSE,159,8.0,14.0,31,0.00,,,0.00,weatherlink.com 1.10,2013-08-14 19:08:00,
2013-08-14 13:38:00,96.6,60.0,30.10,SSE,147,6.0,13.0,30,0.00,,,0.00,weatherlink.com 1.10,2013-08-14 19:38:00,
2013-08-14 13:53:00,97.5,60.0,30.09,ENE,73,5.0,11.0,29,0.00,,,0.00,weatherlink.com 1.10,2013-08-14 19:53:00,
2013-08-14 14:08:00,97.6,59.0,30.08,SE,127,0.0,11.0,28,0.00,,,0.00,weatherlink.com 1.10,2013-08-14 20:08:00,
2013-08-14 14:39:00,98.4,59.0,30.07,SSE,150,8.0,12.0,27,0.00,,,0.00,weatherlink.com 1.10,2013-08-14 20:39:00,
2013-08-14 14:54:00,98.3,60.0,30.06,ESE,118,5.0,7.0,28,0.00,,,0.00,weatherlink.com 1.10,2013-08-14 20:54:00,
2013-08-14 15:09:00,98.5,58.0,30.06,ESE,108,8.0,15.0,26,0.00,,,0.00,weatherlink.com 1.10,2013-08-14 21:09:00,
2013-08-14 15:24:00,99.5,56.0,30.05,ENE,70,12.0,14.0,24,0.00,,,0.00,weatherlink.com 1.10,2013-08-14 21:24:00,
2013-08-14 15:39:00,98.9,57.0,30.05,East,96,0.0,12.0,25,0.00,,,0.00,weatherlink.com 1.10,2013-08-14 21:39:00,
2013-08-14 15:55:00,99.6,58.0,30.04,South,188,5.0,10.0,25,0.00,,,0.00,weatherlink.com 1.10,2013-08-14 21:55:00,
2013-08-14 16:10:00,98.5,57.0,30.04,ESE,118,5.0,12.0,25,0.00,,,0.00,weatherlink.com 1.10,2013-08-14 22:10:00,
2013-08-14 16:25:00,100.6,55.0,30.04,East,84,7.0,17.0,22,0.00,,,0.00,weatherlink.com 1.10,2013-08-14 22:25:00,
2013-08-14 16:40:00,97.5,55.0,30.04,ESE,122,5.0,13.0,24,0.00,,,0.00,weatherlink.com 1.10,2013-08-14 22:40:00,
2013-08-14 16:56:00,98.6,56.0,30.03,East,88,9.0,15.0,24,0.00,,,0.00,weatherlink.com 1.10,2013-08-14 22:56:00,
2013-08-14 17:11:00,97.9,55.0,30.03,East,98,6.0,17.0,24,0.00,,,0.00,weatherlink.com 1.10,2013-08-14 23:11:00,
2013-08-14 17:26:00,95.2,54.0,30.03,East,96,9.0,16.0,25,0.00,,,0.00,weatherlink.com 1.10,2013-08-14 23:26:00,
2013-08-14 17:41:00,93.3,54.0,30.02,SE,137,5.0,14.0,27,0.00,,,0.00,weatherlink.com 1.10,2013-08-14 23:41:00,
2013-08-14 17:57:00,92.7,54.0,30.02,ESE,113,4.0,13.0,27,0.00,,,0.00,weatherlink.com 1.10,2013-08-14 23:57:00,
2013-08-14 18:12:00,92.9,54.0,30.02,SE,128,8.0,12.0,27,0.00,,,0.00,weatherlink.com 1.10,2013-08-15 00:12:00,
2013-08-14 18:27:00,91.9,54.0,30.02,SSE,155,5.0,13.0,28,0.00,,,0.00,weatherlink.com 1.10,2013-08-15 00:27:00,
2013-08-14 18:42:00,91.3,53.0,30.02,SE,130,6.0,12.0,27,0.00,,,0.00,weatherlink.com 1.10,2013-08-15 00:42:00,
2013-08-14 18:57:00,90.8,52.0,30.02,ESE,119,8.0,13.0,27,0.00,,,0.00,weatherlink.com 1.10,2013-08-15 00:57:00,
2013-08-14 19:12:00,90.4,53.0,30.02,SE,142,10.0,12.0,28,0.00,,,0.00,weatherlink.com 1.10,2013-08-15 01:12:00,
2013-08-14 19:28:00,90.1,54.0,30.04,SE,132,4.0,12.0,29,0.00,,,0.00,weatherlink.com 1.10,2013-08-15 01:28:00,
2013-08-14 19:43:00,84.8,58.0,30.09,NNW,331,15.0,25.0,41,0.00,,,0.00,weatherlink.com 1.10,2013-08-15 01:43:00,
2013-08-14 19:58:00,78.1,56.0,30.09,NNW,344,12.0,33.0,46,0.00,,,0.00,weatherlink.com 1.10,2013-08-15 01:58:00,
2013-08-14 20:13:00,78.6,58.0,30.09,North,355,20.0,25.0,49,0.00,,,0.00,weatherlink.com 1.10,2013-08-15 02:13:00,
2013-08-14 20:28:00,79.2,57.0,30.10,NW,317,12.0,22.0,47,0.00,,,0.00,weatherlink.com 1.10,2013-08-15 02:28:00,
2013-08-14 20:43:00,80.3,56.0,30.10,NW,315,12.0,21.0,44,0.00,,,0.00,weatherlink.com 1.10,2013-08-15 02:43:00,
2013-08-14 20:59:00,81.4,56.0,30.10,NW,319,9.0,22.0,42,0.00,,,0.00,weatherlink.com 1.10,2013-08-15 02:59:00,
2013-08-14 21:14:00,82.1,55.0,30.10,NW,320,12.0,15.0,40,0.00,,,0.00,weatherlink.com 1.10,2013-08-15 03:14:00,
2013-08-14 21:29:00,83.0,55.0,30.12,NNW,340,1.0,11.0,38,0.00,,,0.00,weatherlink.com 1.10,2013-08-15 03:29:00,
2013-08-14 21:44:00,83.6,53.0,30.13,East,88,6.0,8.0,35,0.00,,,0.00,weatherlink.com 1.10,2013-08-15 03:44:00,
2013-08-14 22:00:00,82.1,55.0,30.15,East,97,6.0,14.0,40,0.00,,,0.00,weatherlink.com 1.10,2013-08-15 04:00:00,
2013-08-14 22:15:00,79.5,59.0,30.16,NNE,15,6.0,16.0,50,0.00,,,0.00,weatherlink.com 1.10,2013-08-15 04:15:00,
2013-08-14 22:30:00,76.8,60.0,30.17,West,277,6.0,11.0,57,0.01,,,0.01,weatherlink.com 1.10,2013-08-15 04:30:00,
2013-08-14 22:45:00,75.1,61.0,30.16,East,99,0.0,8.0,62,0.02,,,0.02,weatherlink.com 1.10,2013-08-15 04:45:00,
2013-08-14 23:01:00,74.1,62.0,30.18,WNW,295,4.0,9.0,66,0.02,,,0.02,weatherlink.com 1.10,2013-08-15 05:01:00,
2013-08-14 23:16:00,72.9,64.0,30.18,West,273,5.0,11.0,73,0.07,,,0.08,weatherlink.com 1.10,2013-08-15 05:16:00,
2013-08-14 23:31:00,71.5,64.0,30.18,North,5,9.0,10.0,77,0.10,,,0.11,weatherlink.com 1.10,2013-08-15 05:31:00,
2013-08-14 23:46:00,70.6,62.0,30.19,SW,234,1.0,17.0,75,0.09,,,0.11,weatherlink.com 1.10,2013-08-15 05:46:00,